sensor_id;sensor_type;location;lat;lon;timestamp;pressure;altitude;pressure_sealevel;temperature;humidity
24031;BME280;12240;51.142;22.486;2022-12-29T00:01:02;99213.84;;;1.58;100.00
24031;BME280;12240;51.142;22.486;2022-12-29T00:03:30;99354.59;;;2.38;100.00
24031;BME280;12240;51.142;22.486;2022-12-29T00:05:59;99346.88;;;2.23;100.00
24031;BME280;12240;51.142;22.486;2022-12-29T00:08:28;99376.31;;;2.28;100.00
24031;BME280;12240;51.142;22.486;2022-12-29T00:11:16;99375.19;;;2.32;100.00
24031;BME280;12240;51.142;22.486;2022-12-29T00:13:45;99369.47;;;2.25;100.00
24031;BME280;12240;51.142;22.486;2022-12-29T00:16:34;99330.75;;;2.02;100.00
24031;BME280;12240;51.142;22.486;2022-12-29T00:19:03;99369.66;;;2.22;100.00
24031;BME280;12240;51.142;22.486;2022-12-29T00:21:32;99370.53;;;2.23;100.00
24031;BME280;12240;51.142;22.486;2022-12-29T00:24:21;99381.47;;;2.29;100.00
24031;BME280;12240;51.142;22.486;2022-12-29T00:29:51;99372.19;;;2.24;100.00
24031;BME280;12240;51.142;22.486;2022-12-29T00:32:38;99375.34;;;2.29;100.00
24031;BME280;12240;51.142;22.486;2022-12-29T00:35:29;99345.75;;;2.27;100.00
24031;BME280;12240;51.142;22.486;2022-12-29T00:38:03;99355.94;;;2.31;100.00
24031;BME280;12240;51.142;22.486;2022-12-29T00:40:51;99310.34;;;1.93;100.00
24031;BME280;12240;51.142;22.486;2022-12-29T00:43:38;99326.63;;;1.98;100.00
24031;BME280;12240;51.142;22.486;2022-12-29T00:46:25;99370.19;;;2.27;100.00
24031;BME280;12240;51.142;22.486;2022-12-29T00:48:54;99368.63;;;2.25;100.00
24031;BME280;12240;51.142;22.486;2022-12-29T00:51:41;99376.06;;;2.18;100.00
24031;BME280;12240;51.142;22.486;2022-12-29T00:54:09;99365.13;;;2.12;100.00
24031;BME280;12240;51.142;22.486;2022-12-29T00:56:37;99366.72;;;2.14;100.00
24031;BME280;12240;51.142;22.486;2022-12-29T00:59:09;99340.00;;;2.08;100.00
24031;BME280;12240;51.142;22.486;2022-12-29T01:01:39;99357.97;;;2.14;100.00
24031;BME280;12240;51.142;22.486;2022-12-29T01:04:09;99354.81;;;2.09;100.00
24031;BME280;12240;51.142;22.486;2022-12-29T01:06:40;99352.28;;;2.07;100.00
24031;BME280;12240;51.142;22.486;2022-12-29T01:09:09;99342.53;;;2.09;100.00
24031;BME280;12240;51.142;22.486;2022-12-29T01:11:57;99334.84;;;2.06;100.00
24031;BME280;12240;51.142;22.486;2022-12-29T01:14:26;99321.47;;;1.97;100.00
24031;BME280;12240;51.142;22.486;2022-12-29T01:16:55;99331.66;;;2.01;100.00
24031;BME280;12240;51.142;22.486;2022-12-29T01:19:25;99343.66;;;2.05;100.00
24031;BME280;12240;51.142;22.486;2022-12-29T01:21:56;99341.88;;;2.06;100.00
24031;BME280;12240;51.142;22.486;2022-12-29T01:24:24;99284.34;;;1.76;100.00
24031;BME280;12240;51.142;22.486;2022-12-29T01:26:53;99327.06;;;2.05;100.00
24031;BME280;12240;51.142;22.486;2022-12-29T01:29:22;99331.50;;;2.04;100.00
24031;BME280;12240;51.142;22.486;2022-12-29T01:31:51;99328.22;;;2.01;100.00
24031;BME280;12240;51.142;22.486;2022-12-29T01:34:19;99294.00;;;1.76;100.00
24031;BME280;12240;51.142;22.486;2022-12-29T01:36:48;99290.06;;;1.69;100.00
24031;BME280;12240;51.142;22.486;2022-12-29T01:39:16;99336.38;;;1.96;100.00
24031;BME280;12240;51.142;22.486;2022-12-29T01:41:44;99326.50;;;1.87;100.00
24031;BME280;12240;51.142;22.486;2022-12-29T01:44:48;99332.84;;;1.97;100.00
24031;BME280;12240;51.142;22.486;2022-12-29T01:47:44;99327.75;;;1.94;100.00
24031;BME280;12240;51.142;22.486;2022-12-29T01:50:30;99342.47;;;1.97;100.00
24031;BME280;12240;51.142;22.486;2022-12-29T01:53:13;99320.84;;;1.93;100.00
24031;BME280;12240;51.142;22.486;2022-12-29T01:55:55;99331.78;;;2.00;100.00
24031;BME280;12240;51.142;22.486;2022-12-29T01:58:32;99317.34;;;1.93;100.00
24031;BME280;12240;51.142;22.486;2022-12-29T02:01:02;99310.09;;;1.84;100.00
24031;BME280;12240;51.142;22.486;2022-12-29T02:03:31;99315.91;;;1.89;100.00
24031;BME280;12240;51.142;22.486;2022-12-29T02:06:12;99317.22;;;1.82;100.00
24031;BME280;12240;51.142;22.486;2022-12-29T02:08:47;99304.31;;;1.79;100.00
24031;BME280;12240;51.142;22.486;2022-12-29T02:11:17;99306.84;;;1.80;100.00
24031;BME280;12240;51.142;22.486;2022-12-29T02:13:46;99308.94;;;1.88;100.00
24031;BME280;12240;51.142;22.486;2022-12-29T02:16:53;99307.81;;;1.92;100.00
24031;BME280;12240;51.142;22.486;2022-12-29T02:36:39;99195.75;;;1.41;100.00
24031;BME280;12240;51.142;22.486;2022-12-29T02:42:17;99268.91;;;1.84;100.00
24031;BME280;12240;51.142;22.486;2022-12-29T02:45:15;99247.16;;;1.70;100.00
24031;BME280;12240;51.142;22.486;2022-12-29T02:48:28;99264.94;;;1.79;100.00
24031;BME280;12240;51.142;22.486;2022-12-29T02:51:19;99261.84;;;1.72;100.00
24031;BME280;12240;51.142;22.486;2022-12-29T02:53:49;99215.63;;;1.57;100.00
24031;BME280;12240;51.142;22.486;2022-12-29T02:56:38;99233.38;;;1.66;100.00
24031;BME280;12240;51.142;22.486;2022-12-29T02:59:06;99268.00;;;1.85;100.00
24031;BME280;12240;51.142;22.486;2022-12-29T03:11:15;99273.88;;;1.89;100.00
24031;BME280;12240;51.142;22.486;2022-12-29T03:14:14;99276.09;;;1.95;100.00
24031;BME280;12240;51.142;22.486;2022-12-29T03:17:14;99278.63;;;1.96;100.00
24031;BME280;12240;51.142;22.486;2022-12-29T03:19:49;99266.47;;;2.08;100.00
24031;BME280;12240;51.142;22.486;2022-12-29T03:22:24;99276.34;;;2.04;100.00
24031;BME280;12240;51.142;22.486;2022-12-29T03:25:26;99271.09;;;2.04;100.00
24031;BME280;12240;51.142;22.486;2022-12-29T03:28:11;99216.63;;;1.81;100.00
24031;BME280;12240;51.142;22.486;2022-12-29T03:30:45;99226.28;;;1.81;100.00
24031;BME280;12240;51.142;22.486;2022-12-29T03:33:21;99267.28;;;1.96;100.00
24031;BME280;12240;51.142;22.486;2022-12-29T03:35:56;99276.09;;;1.95;100.00
24031;BME280;12240;51.142;22.486;2022-12-29T03:38:49;99266.44;;;1.95;100.00
24031;BME280;12240;51.142;22.486;2022-12-29T03:41:24;99270.63;;;1.98;100.00
24031;BME280;12240;51.142;22.486;2022-12-29T03:43:54;99270.00;;;1.94;100.00
24031;BME280;12240;51.142;22.486;2022-12-29T03:46:23;99267.69;;;1.90;100.00
24031;BME280;12240;51.142;22.486;2022-12-29T03:48:52;99233.19;;;1.69;100.00
24031;BME280;12240;51.142;22.486;2022-12-29T03:51:20;99223.00;;;1.65;100.00
24031;BME280;12240;51.142;22.486;2022-12-29T03:53:48;99267.13;;;1.85;100.00
24031;BME280;12240;51.142;22.486;2022-12-29T03:56:17;99268.53;;;1.90;100.00
24031;BME280;12240;51.142;22.486;2022-12-29T03:58:48;99231.41;;;1.70;100.00
24031;BME280;12240;51.142;22.486;2022-12-29T04:01:25;99228.78;;;1.70;100.00
24031;BME280;12240;51.142;22.486;2022-12-29T04:03:53;99269.16;;;1.94;100.00
24031;BME280;12240;51.142;22.486;2022-12-29T04:06:22;99119.72;;;1.00;100.00
24031;BME280;12240;51.142;22.486;2022-12-29T04:09:00;99260.75;;;1.89;100.00
24031;BME280;12240;51.142;22.486;2022-12-29T04:11:32;99217.84;;;1.63;100.00
24031;BME280;12240;51.142;22.486;2022-12-29T04:14:03;99267.81;;;2.01;100.00
24031;BME280;12240;51.142;22.486;2022-12-29T04:16:33;99254.69;;;2.01;100.00
24031;BME280;12240;51.142;22.486;2022-12-29T04:19:06;99269.63;;;2.13;100.00
24031;BME280;12240;51.142;22.486;2022-12-29T04:21:37;99258.69;;;2.19;100.00
24031;BME280;12240;51.142;22.486;2022-12-29T04:24:06;99241.78;;;2.10;100.00
24031;BME280;12240;51.142;22.486;2022-12-29T04:26:40;99251.56;;;2.21;100.00
24031;BME280;12240;51.142;22.486;2022-12-29T04:29:29;99181.78;;;1.92;100.00
24031;BME280;12240;51.142;22.486;2022-12-29T04:32:17;99190.28;;;1.95;100.00
24031;BME280;12240;51.142;22.486;2022-12-29T04:34:49;99230.22;;;2.25;100.00
24031;BME280;12240;51.142;22.486;2022-12-29T04:37:18;99196.50;;;2.07;100.00
24031;BME280;12240;51.142;22.486;2022-12-29T04:39:46;99236.22;;;2.27;100.00
24031;BME280;12240;51.142;22.486;2022-12-29T04:42:14;99223.50;;;2.34;100.00
24031;BME280;12240;51.142;22.486;2022-12-29T04:44:44;99214.59;;;2.36;100.00
24031;BME280;12240;51.142;22.486;2022-12-29T04:47:32;99207.44;;;2.26;100.00
24031;BME280;12240;51.142;22.486;2022-12-29T04:50:27;99214.81;;;2.33;100.00
24031;BME280;12240;51.142;22.486;2022-12-29T04:53:13;99215.00;;;2.30;100.00
24031;BME280;12240;51.142;22.486;2022-12-29T04:55:43;99219.72;;;2.38;100.00
24031;BME280;12240;51.142;22.486;2022-12-29T04:58:12;99170.88;;;2.10;100.00
24031;BME280;12240;51.142;22.486;2022-12-29T05:00:51;99227.41;;;2.41;100.00
24031;BME280;12240;51.142;22.486;2022-12-29T05:03:22;99207.66;;;2.35;100.00
24031;BME280;12240;51.142;22.486;2022-12-29T05:05:54;99161.00;;;2.14;100.00
24031;BME280;12240;51.142;22.486;2022-12-29T05:08:24;99161.72;;;2.16;100.00
24031;BME280;12240;51.142;22.486;2022-12-29T05:10:58;99206.19;;;2.44;100.00
24031;BME280;12240;51.142;22.486;2022-12-29T05:13:27;99184.09;;;2.34;100.00
24031;BME280;12240;51.142;22.486;2022-12-29T05:15:55;99198.94;;;2.48;100.00
24031;BME280;12240;51.142;22.486;2022-12-29T05:18:24;99196.19;;;2.49;100.00
24031;BME280;12240;51.142;22.486;2022-12-29T05:20:52;99199.75;;;2.48;100.00
24031;BME280;12240;51.142;22.486;2022-12-29T05:23:23;99210.47;;;2.45;100.00
24031;BME280;12240;51.142;22.486;2022-12-29T05:25:56;99216.78;;;2.42;100.00
24031;BME280;12240;51.142;22.486;2022-12-29T05:28:47;99212.06;;;2.35;100.00
24031;BME280;12240;51.142;22.486;2022-12-29T05:31:19;99220.69;;;2.37;100.00
24031;BME280;12240;51.142;22.486;2022-12-29T05:33:49;99210.69;;;2.42;100.00
24031;BME280;12240;51.142;22.486;2022-12-29T05:36:18;99216.47;;;2.47;100.00
24031;BME280;12240;51.142;22.486;2022-12-29T05:38:50;99225.84;;;2.51;100.00
24031;BME280;12240;51.142;22.486;2022-12-29T05:41:19;99225.22;;;2.48;100.00
24031;BME280;12240;51.142;22.486;2022-12-29T05:44:06;99220.16;;;2.45;100.00
24031;BME280;12240;51.142;22.486;2022-12-29T05:46:49;99197.03;;;2.37;100.00
24031;BME280;12240;51.142;22.486;2022-12-29T05:49:33;99199.22;;;2.43;100.00
24031;BME280;12240;51.142;22.486;2022-12-29T05:52:33;99186.72;;;2.34;100.00
24031;BME280;12240;51.142;22.486;2022-12-29T05:55:01;99187.38;;;2.25;100.00
24031;BME280;12240;51.142;22.486;2022-12-29T05:57:31;99179.28;;;2.15;100.00
24031;BME280;12240;51.142;22.486;2022-12-29T06:00:09;99182.63;;;2.17;100.00
24031;BME280;12240;51.142;22.486;2022-12-29T06:02:45;99139.13;;;1.88;100.00
24031;BME280;12240;51.142;22.486;2022-12-29T06:05:16;99171.50;;;2.14;100.00
24031;BME280;12240;51.142;22.486;2022-12-29T06:07:44;99159.94;;;2.16;100.00
24031;BME280;12240;51.142;22.486;2022-12-29T06:10:15;99162.03;;;2.24;100.00
24031;BME280;12240;51.142;22.486;2022-12-29T06:12:59;99110.44;;;1.98;100.00
24031;BME280;12240;51.142;22.486;2022-12-29T06:15:27;99105.03;;;2.01;100.00
24031;BME280;12240;51.142;22.486;2022-12-29T06:17:55;99153.75;;;2.30;100.00
24031;BME280;12240;51.142;22.486;2022-12-29T06:20:24;99093.84;;;2.10;100.00
24031;BME280;12240;51.142;22.486;2022-12-29T06:22:52;99141.75;;;2.38;100.00
24031;BME280;12240;51.142;22.486;2022-12-29T06:25:21;99149.75;;;2.37;100.00
24031;BME280;12240;51.142;22.486;2022-12-29T06:27:49;99142.69;;;2.37;100.00
24031;BME280;12240;51.142;22.486;2022-12-29T06:30:17;99166.13;;;2.41;100.00
24031;BME280;12240;51.142;22.486;2022-12-29T06:32:45;99165.28;;;2.40;100.00
24031;BME280;12240;51.142;22.486;2022-12-29T06:35:14;99158.44;;;2.37;100.00
24031;BME280;12240;51.142;22.486;2022-12-29T06:37:47;99110.56;;;2.09;100.00
24031;BME280;12240;51.142;22.486;2022-12-29T06:40:15;99117.09;;;2.16;100.00
24031;BME280;12240;51.142;22.486;2022-12-29T06:43:03;99167.81;;;2.42;100.00
24031;BME280;12240;51.142;22.486;2022-12-29T06:45:43;99132.41;;;2.22;100.00
24031;BME280;12240;51.142;22.486;2022-12-29T06:48:11;99173.16;;;2.53;100.00
24031;BME280;12240;51.142;22.486;2022-12-29T06:50:39;99166.63;;;2.58;100.00
24031;BME280;12240;51.142;22.486;2022-12-29T06:53:07;99133.03;;;2.38;100.00
24031;BME280;12240;51.142;22.486;2022-12-29T06:55:37;99125.06;;;2.27;100.00
24031;BME280;12240;51.142;22.486;2022-12-29T06:58:04;99153.28;;;2.49;100.00
24031;BME280;12240;51.142;22.486;2022-12-29T07:00:33;99159.06;;;2.54;100.00
24031;BME280;12240;51.142;22.486;2022-12-29T07:03:01;99151.06;;;2.55;100.00
24031;BME280;12240;51.142;22.486;2022-12-29T07:05:29;99146.66;;;2.56;100.00
24031;BME280;12240;51.142;22.486;2022-12-29T07:08:00;99139.19;;;2.62;100.00
24031;BME280;12240;51.142;22.486;2022-12-29T07:10:28;99107.38;;;2.42;100.00
24031;BME280;12240;51.142;22.486;2022-12-29T07:12:56;99102.22;;;2.40;100.00
24031;BME280;12240;51.142;22.486;2022-12-29T07:15:24;99110.63;;;2.45;100.00
24031;BME280;12240;51.142;22.486;2022-12-29T07:17:53;99157.34;;;2.78;100.00
24031;BME280;12240;51.142;22.486;2022-12-29T07:20:21;99136.31;;;2.78;100.00
24031;BME280;12240;51.142;22.486;2022-12-29T07:22:54;99092.41;;;2.55;100.00
24031;BME280;12240;51.142;22.486;2022-12-29T07:25:22;99149.41;;;2.90;100.00
24031;BME280;12240;51.142;22.486;2022-12-29T07:27:51;99144.91;;;2.92;100.00
24031;BME280;12240;51.142;22.486;2022-12-29T07:30:19;99135.25;;;2.80;100.00
24031;BME280;12240;51.142;22.486;2022-12-29T07:32:48;99133.56;;;2.79;100.00
24031;BME280;12240;51.142;22.486;2022-12-29T07:35:16;99161.59;;;2.91;100.00
24031;BME280;12240;51.142;22.486;2022-12-29T07:37:45;99150.59;;;2.86;100.00
24031;BME280;12240;51.142;22.486;2022-12-29T07:40:13;99159.19;;;2.88;100.00
24031;BME280;12240;51.142;22.486;2022-12-29T07:42:42;99153.59;;;2.93;100.00
24031;BME280;12240;51.142;22.486;2022-12-29T07:45:13;99144.66;;;2.95;100.00
24031;BME280;12240;51.142;22.486;2022-12-29T07:47:59;99127.41;;;2.91;100.00
24031;BME280;12240;51.142;22.486;2022-12-29T07:50:29;99139.38;;;3.08;100.00
24031;BME280;12240;51.142;22.486;2022-12-29T07:52:57;99094.41;;;2.87;100.00
24031;BME280;12240;51.142;22.486;2022-12-29T07:55:26;99137.75;;;3.18;100.00
24031;BME280;12240;51.142;22.486;2022-12-29T07:57:55;99146.03;;;3.24;100.00
24031;BME280;12240;51.142;22.486;2022-12-29T08:00:24;99144.44;;;3.22;100.00
24031;BME280;12240;51.142;22.486;2022-12-29T08:02:53;99150.13;;;3.28;100.00
24031;BME280;12240;51.142;22.486;2022-12-29T08:05:22;99151.44;;;3.34;100.00
24031;BME280;12240;51.142;22.486;2022-12-29T08:07:50;99099.72;;;2.98;100.00
24031;BME280;12240;51.142;22.486;2022-12-29T08:10:19;99085.84;;;2.96;100.00
24031;BME280;12240;51.142;22.486;2022-12-29T08:12:47;99119.44;;;3.16;100.00
24031;BME280;12240;51.142;22.486;2022-12-29T08:15:16;99122.69;;;3.20;100.00
24031;BME280;12240;51.142;22.486;2022-12-29T08:17:44;99130.22;;;3.24;100.00
24031;BME280;12240;51.142;22.486;2022-12-29T08:20:12;99104.84;;;3.23;100.00
24031;BME280;12240;51.142;22.486;2022-12-29T08:22:40;99086.66;;;3.09;100.00
24031;BME280;12240;51.142;22.486;2022-12-29T08:25:09;99113.16;;;3.30;100.00
24031;BME280;12240;51.142;22.486;2022-12-29T08:27:38;99108.41;;;3.35;100.00
24031;BME280;12240;51.142;22.486;2022-12-29T08:30:07;99087.16;;;3.25;100.00
24031;BME280;12240;51.142;22.486;2022-12-29T08:32:36;99074.94;;;3.13;100.00
24031;BME280;12240;51.142;22.486;2022-12-29T08:35:04;99112.94;;;3.33;100.00
24031;BME280;12240;51.142;22.486;2022-12-29T08:37:33;99078.66;;;3.22;100.00
24031;BME280;12240;51.142;22.486;2022-12-29T08:40:01;99118.75;;;3.49;100.00
24031;BME280;12240;51.142;22.486;2022-12-29T08:42:32;99110.84;;;3.49;100.00
24031;BME280;12240;51.142;22.486;2022-12-29T08:45:01;99112.38;;;3.51;100.00
24031;BME280;12240;51.142;22.486;2022-12-29T08:47:29;99103.31;;;3.55;100.00
24031;BME280;12240;51.142;22.486;2022-12-29T08:49:57;99108.94;;;3.62;100.00
24031;BME280;12240;51.142;22.486;2022-12-29T08:52:26;99095.78;;;3.62;100.00
24031;BME280;12240;51.142;22.486;2022-12-29T08:54:54;99013.94;;;3.08;100.00
24031;BME280;12240;51.142;22.486;2022-12-29T08:57:22;99088.94;;;3.59;100.00
24031;BME280;12240;51.142;22.486;2022-12-29T09:00:08;99060.09;;;3.47;100.00
24031;BME280;12240;51.142;22.486;2022-12-29T09:02:36;99092.22;;;3.74;100.00
24031;BME280;12240;51.142;22.486;2022-12-29T09:05:05;99078.22;;;3.74;100.00
24031;BME280;12240;51.142;22.486;2022-12-29T09:07:34;99083.63;;;3.83;100.00
24031;BME280;12240;51.142;22.486;2022-12-29T09:10:03;99078.00;;;3.88;100.00
24031;BME280;12240;51.142;22.486;2022-12-29T09:12:32;99082.56;;;3.97;100.00
24031;BME280;12240;51.142;22.486;2022-12-29T09:15:05;99085.22;;;3.97;100.00
24031;BME280;12240;51.142;22.486;2022-12-29T09:17:33;99050.47;;;3.81;100.00
24031;BME280;12240;51.142;22.486;2022-12-29T09:20:16;99080.06;;;4.06;100.00
24031;BME280;12240;51.142;22.486;2022-12-29T09:22:46;99068.78;;;4.04;100.00
24031;BME280;12240;51.142;22.486;2022-12-29T09:25:15;99055.88;;;4.12;100.00
24031;BME280;12240;51.142;22.486;2022-12-29T09:27:44;99085.31;;;4.39;100.00
24031;BME280;12240;51.142;22.486;2022-12-29T09:30:13;99052.88;;;4.28;100.00
24031;BME280;12240;51.142;22.486;2022-12-29T09:32:42;99057.66;;;4.45;100.00
24031;BME280;12240;51.142;22.486;2022-12-29T09:35:15;99054.63;;;4.49;100.00
24031;BME280;12240;51.142;22.486;2022-12-29T09:37:44;99054.50;;;4.51;100.00
24031;BME280;12240;51.142;22.486;2022-12-29T09:40:35;99042.63;;;4.67;100.00
24031;BME280;12240;51.142;22.486;2022-12-29T09:49:12;98984.34;;;4.70;100.00
24031;BME280;12240;51.142;22.486;2022-12-29T09:51:52;98960.28;;;4.64;100.00
24031;BME280;12240;51.142;22.486;2022-12-29T09:54:29;99036.63;;;5.08;100.00
24031;BME280;12240;51.142;22.486;2022-12-29T09:57:01;99020.66;;;5.10;100.00
24031;BME280;12240;51.142;22.486;2022-12-29T09:59:41;98981.38;;;4.96;100.00
24031;BME280;12240;51.142;22.486;2022-12-29T10:02:31;99008.88;;;5.14;100.00
24031;BME280;12240;51.142;22.486;2022-12-29T10:05:00;99001.31;;;5.09;100.00
24031;BME280;12240;51.142;22.486;2022-12-29T10:07:42;99015.69;;;5.16;100.00
24031;BME280;12240;51.142;22.486;2022-12-29T10:16:17;99018.69;;;5.23;100.00
24031;BME280;12240;51.142;22.486;2022-12-29T10:24:53;99021.97;;;5.36;100.00
24031;BME280;12240;51.142;22.486;2022-12-29T10:27:24;99030.06;;;5.44;100.00
24031;BME280;12240;51.142;22.486;2022-12-29T10:29:55;98977.66;;;5.19;100.00
24031;BME280;12240;51.142;22.486;2022-12-29T10:32:35;99015.66;;;5.48;100.00
24031;BME280;12240;51.142;22.486;2022-12-29T10:35:37;99010.31;;;5.59;100.00
24031;BME280;12240;51.142;22.486;2022-12-29T10:38:40;98996.72;;;5.63;100.00
24031;BME280;12240;51.142;22.486;2022-12-29T10:41:21;98986.59;;;5.68;100.00
24031;BME280;12240;51.142;22.486;2022-12-29T10:43:56;98995.25;;;5.80;100.00
24031;BME280;12240;51.142;22.486;2022-12-29T10:46:33;98990.69;;;5.82;100.00
24031;BME280;12240;51.142;22.486;2022-12-29T10:49:04;98994.09;;;5.93;100.00
24031;BME280;12240;51.142;22.486;2022-12-29T10:51:44;98985.78;;;5.98;100.00
24031;BME280;12240;51.142;22.486;2022-12-29T10:54:45;98966.88;;;6.03;100.00
24031;BME280;12240;51.142;22.486;2022-12-29T10:59:46;98956.59;;;6.09;100.00
24031;BME280;12240;51.142;22.486;2022-12-29T11:02:51;98954.53;;;6.13;100.00
24031;BME280;12240;51.142;22.486;2022-12-29T11:05:44;98905.88;;;5.85;100.00
24031;BME280;12240;51.142;22.486;2022-12-29T11:08:22;98925.81;;;5.99;100.00
24031;BME280;12240;51.142;22.486;2022-12-29T11:11:06;98942.00;;;6.15;100.00
24031;BME280;12240;51.142;22.486;2022-12-29T11:14:12;98953.72;;;6.22;100.00
24031;BME280;12240;51.142;22.486;2022-12-29T11:16:41;98891.44;;;5.89;100.00
24031;BME280;12240;51.142;22.486;2022-12-29T11:19:26;98947.34;;;6.24;100.00
24031;BME280;12240;51.142;22.486;2022-12-29T11:21:55;98900.09;;;6.01;100.00
24031;BME280;12240;51.142;22.486;2022-12-29T11:24:28;98936.06;;;6.22;100.00
24031;BME280;12240;51.142;22.486;2022-12-29T11:27:23;98928.28;;;6.30;100.00
24031;BME280;12240;51.142;22.486;2022-12-29T11:29:54;98883.03;;;6.24;100.00
24031;BME280;12240;51.142;22.486;2022-12-29T11:32:28;98884.88;;;6.33;100.00
24031;BME280;12240;51.142;22.486;2022-12-29T11:34:59;98892.53;;;6.36;100.00
24031;BME280;12240;51.142;22.486;2022-12-29T11:37:33;98910.91;;;6.56;100.00
24031;BME280;12240;51.142;22.486;2022-12-29T11:40:18;98918.97;;;6.45;100.00
24031;BME280;12240;51.142;22.486;2022-12-29T11:43:04;98927.59;;;6.38;100.00
24031;BME280;12240;51.142;22.486;2022-12-29T11:45:36;98934.28;;;6.51;100.00
24031;BME280;12240;51.142;22.486;2022-12-29T11:48:18;98930.53;;;6.44;100.00
24031;BME280;12240;51.142;22.486;2022-12-29T11:50:53;98931.19;;;6.37;100.00
24031;BME280;12240;51.142;22.486;2022-12-29T11:53:47;98932.19;;;6.36;100.00
24031;BME280;12240;51.142;22.486;2022-12-29T11:56:30;98939.59;;;6.51;100.00
24031;BME280;12240;51.142;22.486;2022-12-29T11:59:55;98925.25;;;6.63;100.00
24031;BME280;12240;51.142;22.486;2022-12-29T12:02:32;98925.81;;;6.67;100.00
24031;BME280;12240;51.142;22.486;2022-12-29T12:05:46;98931.09;;;6.67;100.00
24031;BME280;12240;51.142;22.486;2022-12-29T12:08:42;98936.53;;;6.65;100.00
24031;BME280;12240;51.142;22.486;2022-12-29T12:11:20;98941.53;;;6.59;100.00
24031;BME280;12240;51.142;22.486;2022-12-29T12:17:30;98946.25;;;6.46;100.00
24031;BME280;12240;51.142;22.486;2022-12-29T12:20:27;98946.94;;;6.38;100.00
24031;BME280;12240;51.142;22.486;2022-12-29T12:23:12;98952.50;;;6.35;100.00
24031;BME280;12240;51.142;22.486;2022-12-29T12:26:19;98950.00;;;6.43;100.00
24031;BME280;12240;51.142;22.486;2022-12-29T12:29:19;98947.91;;;6.47;100.00
24031;BME280;12240;51.142;22.486;2022-12-29T12:32:09;98948.19;;;6.44;100.00
24031;BME280;12240;51.142;22.486;2022-12-29T12:34:43;98877.88;;;6.13;100.00
24031;BME280;12240;51.142;22.486;2022-12-29T12:58:52;98931.66;;;6.99;100.00
24031;BME280;12240;51.142;22.486;2022-12-29T13:04:31;98930.94;;;7.16;100.00
24031;BME280;12240;51.142;22.486;2022-12-29T13:25:41;98883.06;;;6.43;100.00
24031;BME280;12240;51.142;22.486;2022-12-29T13:28:52;98935.56;;;6.57;100.00
24031;BME280;12240;51.142;22.486;2022-12-29T13:31:35;98890.69;;;6.17;100.00
24031;BME280;12240;51.142;22.486;2022-12-29T13:37:00;98911.28;;;6.14;100.00
24031;BME280;12240;51.142;22.486;2022-12-29T13:39:52;98953.06;;;6.29;100.00
24031;BME280;12240;51.142;22.486;2022-12-29T13:42:23;98925.31;;;6.14;100.00
24031;BME280;12240;51.142;22.486;2022-12-29T13:45:04;98930.00;;;6.01;100.00
24031;BME280;12240;51.142;22.486;2022-12-29T13:47:42;98959.94;;;6.02;100.00
24031;BME280;12240;51.142;22.486;2022-12-29T13:50:23;98964.88;;;5.95;100.00
24031;BME280;12240;51.142;22.486;2022-12-29T13:53:30;98965.16;;;5.92;100.00
24031;BME280;12240;51.142;22.486;2022-12-29T14:02:03;98974.09;;;5.70;100.00
24031;BME280;12240;51.142;22.486;2022-12-29T14:04:57;98971.72;;;5.67;100.00
24031;BME280;12240;51.142;22.486;2022-12-29T14:07:27;98977.00;;;5.67;100.00
24031;BME280;12240;51.142;22.486;2022-12-29T14:09:56;98973.78;;;5.64;100.00
24031;BME280;12240;51.142;22.486;2022-12-29T14:12:37;98973.72;;;5.54;100.00
24031;BME280;12240;51.142;22.486;2022-12-29T14:17:44;98969.66;;;5.50;100.00
24031;BME280;12240;51.142;22.486;2022-12-29T14:20:28;98976.50;;;5.53;100.00
24031;BME280;12240;51.142;22.486;2022-12-29T14:25:58;98970.19;;;5.44;100.00
24031;BME280;12240;51.142;22.486;2022-12-29T14:28:45;98912.53;;;4.99;100.00
24031;BME280;12240;51.142;22.486;2022-12-29T14:47:43;98971.66;;;5.17;100.00
24031;BME280;12240;51.142;22.486;2022-12-29T14:53:04;98974.94;;;5.09;100.00
24031;BME280;12240;51.142;22.486;2022-12-29T14:55:46;98934.09;;;4.83;100.00
24031;BME280;12240;51.142;22.486;2022-12-29T14:58:50;98954.34;;;5.03;100.00
24031;BME280;12240;51.142;22.486;2022-12-29T15:04:14;98966.97;;;5.00;100.00
24031;BME280;12240;51.142;22.486;2022-12-29T15:06:43;98959.63;;;5.03;100.00
24031;BME280;12240;51.142;22.486;2022-12-29T15:09:45;98972.56;;;5.06;100.00
24031;BME280;12240;51.142;22.486;2022-12-29T15:12:35;98966.13;;;4.99;100.00
24031;BME280;12240;51.142;22.486;2022-12-29T15:15:23;98960.66;;;4.91;100.00
24031;BME280;12240;51.142;22.486;2022-12-29T15:17:52;98957.88;;;4.93;100.00
24031;BME280;12240;51.142;22.486;2022-12-29T15:20:30;98977.31;;;4.92;100.00
24031;BME280;12240;51.142;22.486;2022-12-29T15:23:12;98919.69;;;4.55;100.00
24031;BME280;12240;51.142;22.486;2022-12-29T15:25:59;98979.97;;;4.92;100.00
24031;BME280;12240;51.142;22.486;2022-12-29T15:28:44;98964.72;;;4.95;100.00
24031;BME280;12240;51.142;22.486;2022-12-29T15:31:24;98952.03;;;4.89;100.00
24031;BME280;12240;51.142;22.486;2022-12-29T15:34:11;98966.78;;;4.92;100.00
24031;BME280;12240;51.142;22.486;2022-12-29T15:36:41;98967.34;;;4.95;100.00
24031;BME280;12240;51.142;22.486;2022-12-29T15:39:31;98977.13;;;5.04;100.00
24031;BME280;12240;51.142;22.486;2022-12-29T15:45:32;98919.00;;;4.74;100.00
24031;BME280;12240;51.142;22.486;2022-12-29T15:48:03;98980.75;;;5.03;100.00
24031;BME280;12240;51.142;22.486;2022-12-29T15:50:34;98944.38;;;4.86;100.00
24031;BME280;12240;51.142;22.486;2022-12-29T15:53:10;98928.09;;;4.81;100.00
24031;BME280;12240;51.142;22.486;2022-12-29T15:55:41;98983.34;;;5.14;100.00
24031;BME280;12240;51.142;22.486;2022-12-29T15:58:26;98977.78;;;5.17;100.00